createdAt,value
2023-04-04T00:00:49.664Z,93.00
2023-04-04T00:03:16.674Z,93.00
2023-04-04T00:05:43.873Z,93.00
2023-04-04T00:08:10.721Z,93.10
2023-04-04T00:10:37.770Z,93.20
2023-04-04T00:13:05.729Z,93.20
2023-04-04T00:15:34.706Z,93.30
2023-04-04T00:18:02.700Z,93.30
2023-04-04T00:20:30.990Z,93.30
2023-04-04T00:22:58.072Z,93.40
2023-04-04T00:25:25.259Z,93.30
2023-04-04T00:27:52.128Z,93.50
2023-04-04T00:30:19.173Z,93.50
2023-04-04T00:32:46.159Z,93.40
2023-04-04T00:35:13.097Z,93.40
2023-04-04T00:37:40.075Z,93.50
2023-04-04T00:40:08.610Z,93.50
2023-04-04T00:42:35.528Z,93.60
2023-04-04T00:45:02.389Z,93.60
2023-04-04T00:47:30.480Z,93.70
2023-04-04T00:49:57.440Z,93.70
2023-04-04T00:52:24.516Z,93.80
2023-04-04T00:54:51.893Z,93.80
2023-04-04T00:57:19.390Z,93.90
2023-04-04T00:59:46.305Z,93.90
2023-04-04T01:02:13.345Z,94.00
2023-04-04T01:04:40.525Z,94.00
2023-04-04T01:07:07.953Z,94.10
2023-04-04T01:09:35.011Z,94.10
2023-04-04T01:12:02.430Z,94.20
2023-04-04T01:14:29.321Z,94.20
2023-04-04T01:16:56.507Z,94.30
2023-04-04T01:19:33.842Z,94.30
2023-04-04T01:22:01.340Z,94.40
2023-04-04T01:24:30.844Z,94.40
2023-04-04T01:26:58.205Z,94.70
2023-04-04T01:29:25.105Z,94.50
2023-04-04T01:32:04.989Z,94.50
2023-04-04T01:34:58.436Z,94.60
2023-04-04T01:37:35.299Z,94.60
2023-04-04T01:40:13.306Z,94.60
2023-04-04T01:42:41.301Z,94.60
2023-04-04T01:45:08.652Z,94.70
2023-04-04T01:47:42.685Z,94.80
2023-04-04T01:50:09.910Z,94.80
2023-04-04T01:52:37.058Z,94.80
2023-04-04T01:55:04.290Z,94.80
2023-04-04T01:57:31.445Z,94.90
2023-04-04T01:59:58.283Z,94.90
2023-04-04T02:02:25.436Z,94.90
2023-04-04T02:04:52.376Z,94.90
2023-04-04T02:07:19.600Z,94.90
2023-04-04T02:09:46.480Z,95.00
2023-04-04T02:12:13.329Z,95.00
2023-04-04T02:14:40.785Z,95.00
2023-04-04T02:17:07.833Z,95.10
2023-04-04T02:19:34.677Z,95.10
2023-04-04T02:22:01.728Z,95.40
2023-04-04T02:24:28.579Z,95.20
2023-04-04T02:26:55.517Z,95.20
2023-04-04T02:29:23.073Z,95.20
2023-04-04T02:31:49.919Z,95.20
2023-04-04T02:34:16.741Z,95.20
2023-04-04T02:36:43.538Z,95.30
2023-04-04T02:39:10.377Z,95.30
2023-04-04T02:41:37.804Z,95.40
2023-04-04T02:44:04.726Z,95.40
2023-04-04T02:46:31.704Z,95.40
2023-04-04T02:48:58.698Z,95.50
2023-04-04T02:51:25.800Z,95.50
2023-04-04T02:53:52.752Z,95.50
2023-04-04T02:56:19.677Z,95.60
2023-04-04T02:58:46.720Z,95.60
2023-04-04T03:01:13.711Z,95.60
2023-04-04T03:03:47.407Z,95.60
2023-04-04T03:06:15.567Z,95.70
2023-04-04T03:08:43.099Z,95.70
2023-04-04T03:11:09.966Z,95.70
2023-04-04T03:13:37.035Z,95.70
2023-04-04T03:16:06.849Z,95.70
2023-04-04T03:18:34.741Z,95.80
2023-04-04T03:21:01.753Z,95.80
2023-04-04T03:23:28.787Z,95.90
2023-04-04T03:25:55.712Z,95.90
2023-04-04T03:28:23.229Z,95.90
2023-04-04T03:30:50.434Z,96.20
2023-04-04T03:33:17.353Z,95.90
2023-04-04T03:35:44.297Z,96.00
2023-04-04T03:38:11.321Z,96.00
2023-04-04T03:40:38.321Z,96.10
2023-04-04T03:43:08.665Z,96.10
2023-04-04T03:45:38.588Z,96.10
2023-04-04T03:48:05.738Z,96.10
2023-04-04T03:50:32.645Z,96.10
2023-04-04T03:52:59.921Z,96.10
2023-04-04T03:55:27.356Z,96.20
2023-04-04T03:57:54.416Z,96.20
2023-04-04T04:00:21.371Z,96.20
2023-04-04T04:02:48.283Z,96.20
2023-04-04T04:05:15.277Z,96.20
2023-04-04T04:07:44.774Z,96.30
2023-04-04T04:10:14.160Z,96.30
2023-04-04T04:12:41.676Z,96.30
2023-04-04T04:15:09.195Z,96.30
2023-04-04T04:17:40.368Z,96.40
2023-04-04T04:20:08.697Z,96.30
2023-04-04T04:22:35.834Z,96.40
2023-04-04T04:25:02.746Z,96.40
2023-04-04T04:27:30.638Z,96.40
2023-04-04T04:29:57.599Z,96.50
2023-04-04T04:32:26.608Z,96.50
2023-04-04T04:34:53.580Z,96.50
2023-04-04T04:37:20.625Z,96.50
2023-04-04T04:39:47.556Z,96.50
2023-04-04T04:42:14.489Z,96.60
2023-04-04T04:44:41.776Z,96.60
2023-04-04T04:47:08.737Z,96.60
2023-04-04T04:49:35.752Z,96.60
2023-04-04T04:52:02.819Z,96.70
2023-04-04T04:54:29.706Z,96.70
2023-04-04T04:56:56.684Z,96.70
2023-04-04T04:59:23.878Z,96.70
2023-04-04T05:01:50.931Z,96.80
2023-04-04T05:04:17.882Z,96.70
2023-04-04T05:06:44.805Z,96.80
2023-04-04T05:09:11.698Z,96.80
2023-04-04T05:11:38.785Z,96.80
2023-04-04T05:14:06.305Z,96.80
2023-04-04T05:16:33.486Z,96.90
2023-04-04T05:19:00.552Z,96.90
2023-04-04T05:21:28.052Z,96.90
2023-04-04T05:23:55.217Z,96.90
2023-04-04T05:26:22.101Z,97.00
2023-04-04T05:28:49.020Z,96.90
2023-04-04T05:31:15.853Z,97.00
2023-04-04T05:33:42.928Z,97.00
2023-04-04T05:36:11.479Z,97.00
2023-04-04T05:38:39.296Z,97.10
2023-04-04T05:41:06.320Z,97.10
2023-04-04T05:43:33.183Z,97.10
2023-04-04T05:46:00.280Z,97.20
2023-04-04T05:48:27.159Z,97.10
2023-04-04T05:50:54.238Z,97.10
2023-04-04T05:53:21.159Z,97.10
2023-04-04T05:55:51.662Z,97.10
2023-04-04T05:58:18.564Z,97.20
2023-04-04T06:00:45.466Z,97.50
2023-04-04T06:03:12.958Z,97.30
2023-04-04T06:05:40.300Z,97.30
2023-04-04T06:08:09.254Z,97.40
2023-04-04T06:10:36.569Z,97.40
2023-04-04T06:13:03.320Z,97.40
2023-04-04T06:15:30.169Z,97.40
2023-04-04T06:17:57.042Z,97.40
2023-04-04T06:20:24.217Z,97.40
2023-04-04T06:22:51.076Z,97.40
2023-04-04T06:25:18.150Z,97.40
2023-04-04T06:27:45.464Z,97.50
2023-04-04T06:30:14.630Z,97.50
2023-04-04T06:32:42.623Z,97.50
2023-04-04T06:35:09.717Z,97.60
2023-04-04T06:37:36.527Z,97.50
2023-04-04T06:40:04.296Z,97.60
2023-04-04T06:42:31.154Z,97.60
2023-04-04T06:44:57.858Z,97.60
2023-04-04T06:47:24.787Z,97.70
2023-04-04T06:49:52.120Z,97.70
2023-04-04T06:52:19.170Z,97.80
2023-04-04T06:54:45.986Z,97.80
2023-04-04T06:57:12.794Z,97.70
2023-04-04T06:59:39.563Z,97.80
2023-04-04T07:02:08.931Z,97.80
2023-04-04T07:04:38.208Z,97.80
2023-04-04T07:07:05.046Z,97.80
2023-04-04T07:09:32.031Z,98.10
2023-04-04T07:11:58.922Z,97.80
2023-04-04T07:14:28.413Z,97.90
2023-04-04T07:16:55.408Z,97.90
2023-04-04T07:19:29.040Z,97.90
2023-04-04T07:21:56.832Z,97.90
2023-04-04T07:24:23.642Z,97.90
2023-04-04T07:26:50.638Z,97.90
2023-04-04T07:29:17.686Z,97.90
2023-04-04T07:31:44.841Z,98.10
2023-04-04T07:34:12.078Z,97.90
2023-04-04T07:36:38.908Z,97.90
2023-04-04T07:39:05.867Z,97.90
2023-04-04T07:41:32.574Z,97.80
2023-04-04T07:43:59.467Z,97.80
2023-04-04T07:46:27.994Z,97.80
2023-04-04T07:48:54.816Z,97.80
2023-04-04T07:51:29.061Z,97.80
2023-04-04T07:53:56.563Z,97.80
2023-04-04T07:56:23.526Z,98.00
2023-04-04T07:58:50.716Z,97.70
2023-04-04T08:01:17.491Z,97.70
2023-04-04T08:03:44.550Z,97.70
2023-04-04T08:06:11.788Z,97.70
2023-04-04T08:08:38.871Z,97.60
2023-04-04T08:11:05.925Z,97.60
2023-04-04T08:13:32.834Z,97.50
2023-04-04T08:15:59.752Z,97.40
2023-04-04T08:18:27.422Z,97.30
2023-04-04T08:20:54.517Z,97.30
2023-04-04T08:23:21.342Z,97.30
2023-04-04T08:25:48.456Z,97.20
2023-04-04T08:28:15.782Z,97.20
2023-04-04T08:30:42.718Z,97.10
2023-04-04T08:33:09.764Z,97.00
2023-04-04T08:35:37.164Z,96.90
2023-04-04T08:38:06.378Z,96.80
2023-04-04T08:40:34.899Z,96.70
2023-04-04T08:43:01.929Z,96.60
2023-04-04T08:45:28.935Z,96.40
2023-04-04T08:47:55.854Z,96.20
2023-04-04T08:50:23.281Z,96.10
2023-04-04T08:52:50.250Z,96.00
2023-04-04T08:55:17.587Z,95.80
2023-04-04T08:57:44.623Z,95.70
2023-04-04T09:00:12.151Z,95.50
2023-04-04T09:03:17.889Z,95.40
2023-04-04T09:05:44.999Z,95.20
2023-04-04T09:08:13.132Z,95.10
2023-04-04T09:10:42.127Z,95.10
2023-04-04T09:13:16.189Z,94.60
2023-04-04T09:15:54.352Z,94.50
2023-04-04T09:18:21.221Z,94.40
2023-04-04T09:20:48.368Z,94.30
2023-04-04T09:23:20.637Z,93.90
2023-04-04T09:28:25.573Z,93.40
2023-04-04T09:30:52.628Z,93.30
2023-04-04T09:33:21.678Z,93.00
2023-04-04T09:36:13.143Z,92.90
2023-04-04T09:38:41.027Z,91.80
2023-04-04T09:41:09.773Z,91.80
2023-04-04T09:43:37.752Z,91.80
2023-04-04T09:46:05.551Z,91.60
2023-04-04T09:48:33.564Z,91.20
2023-04-04T09:51:01.150Z,90.70
2023-04-04T09:53:28.347Z,90.60
2023-04-04T09:55:55.885Z,90.30
2023-04-04T09:58:29.405Z,90.00
2023-04-04T10:01:00.865Z,89.00
2023-04-04T10:03:28.774Z,88.60
2023-04-04T10:05:59.199Z,87.80
2023-04-04T10:08:27.430Z,87.30
2023-04-04T10:13:32.836Z,85.50
2023-04-04T10:16:00.874Z,85.10
2023-04-04T10:18:28.918Z,84.30
2023-04-04T10:21:12.193Z,83.20
2023-04-04T10:23:42.365Z,82.40
2023-04-04T10:26:09.310Z,82.00
2023-04-04T10:28:37.021Z,81.40
2023-04-04T10:31:15.150Z,81.10
2023-04-04T10:33:54.091Z,79.60
2023-04-04T10:36:24.698Z,79.20
2023-04-04T10:39:14.832Z,79.10
2023-04-04T10:41:42.047Z,78.30
2023-04-04T10:44:20.961Z,78.80
2023-04-04T10:46:48.609Z,78.10
2023-04-04T10:49:15.513Z,77.80
2023-04-04T10:51:54.878Z,77.40
2023-04-04T10:54:22.989Z,76.70
2023-04-04T10:56:49.898Z,75.90
2023-04-04T10:59:17.459Z,75.10
2023-04-04T11:01:49.229Z,74.00
2023-04-04T11:04:21.142Z,73.00
2023-04-04T11:07:13.422Z,72.90
2023-04-04T11:09:56.456Z,71.00
2023-04-04T11:12:30.520Z,71.00
2023-04-04T11:14:58.292Z,71.00
2023-04-04T11:17:57.427Z,71.00
2023-04-04T11:20:32.002Z,69.70
2023-04-04T11:23:10.219Z,70.30
2023-04-04T11:25:38.992Z,69.10
2023-04-04T11:28:15.886Z,69.00
2023-04-04T11:30:50.360Z,68.50
2023-04-04T11:33:27.845Z,68.20
2023-04-04T11:36:01.246Z,67.20
2023-04-04T11:38:29.440Z,67.20
2023-04-04T11:40:56.897Z,66.30
2023-04-04T11:43:24.923Z,65.80
2023-04-04T11:45:51.837Z,65.50
2023-04-04T11:48:20.065Z,65.20
2023-04-04T11:50:51.417Z,65.30
2023-04-04T11:53:18.327Z,64.80
2023-04-04T11:55:48.198Z,64.10
2023-04-04T11:58:16.769Z,63.90
2023-04-04T12:00:46.821Z,63.30
2023-04-04T12:03:16.405Z,63.10
2023-04-04T12:05:44.392Z,62.90
2023-04-04T12:08:12.073Z,62.30
2023-04-04T12:10:40.690Z,62.00
2023-04-04T12:13:10.739Z,61.40
2023-04-04T12:15:38.232Z,61.00
2023-04-04T12:18:08.798Z,61.70
2023-04-04T12:20:40.156Z,60.70
2023-04-04T12:23:10.257Z,60.30
2023-04-04T12:25:39.284Z,60.30
2023-04-04T12:28:08.074Z,60.00
2023-04-04T12:30:34.876Z,59.00
2023-04-04T12:33:01.877Z,58.00
2023-04-04T12:35:30.116Z,57.00
2023-04-04T12:37:58.816Z,57.20
2023-04-04T12:40:29.594Z,57.80
2023-04-04T12:42:56.583Z,56.70
2023-04-04T12:45:23.462Z,56.40
2023-04-04T12:47:54.622Z,56.70
2023-04-04T12:50:27.826Z,56.80
2023-04-04T12:53:00.252Z,56.50
2023-04-04T12:55:36.915Z,56.40
2023-04-04T12:58:03.890Z,56.40
2023-04-04T13:00:30.945Z,55.60
2023-04-04T13:02:57.931Z,54.90
2023-04-04T13:05:25.834Z,54.90
2023-04-04T13:08:06.051Z,54.60
2023-04-04T13:11:07.055Z,53.50
2023-04-04T13:13:38.743Z,53.40
2023-04-04T13:16:08.139Z,54.00
2023-04-04T13:18:41.888Z,53.40
2023-04-04T13:21:09.162Z,52.50
2023-04-04T13:23:39.405Z,54.70
2023-04-04T13:26:08.184Z,54.40
2023-04-04T13:28:35.749Z,53.80
2023-04-04T13:31:10.605Z,52.90
2023-04-04T13:33:38.014Z,51.80
2023-04-04T13:36:05.354Z,52.40
2023-04-04T13:38:32.278Z,52.40
2023-04-04T13:40:59.241Z,52.20
2023-04-04T13:43:26.721Z,52.00
2023-04-04T13:45:55.734Z,51.20
2023-04-04T13:48:26.617Z,51.00
2023-04-04T13:50:55.577Z,51.00
2023-04-04T13:53:23.081Z,51.00
2023-04-04T13:58:20.658Z,50.40
2023-04-04T14:00:50.686Z,50.20
2023-04-04T14:03:18.085Z,49.60
2023-04-04T14:05:45.057Z,50.00
2023-04-04T14:08:12.396Z,49.50
2023-04-04T14:10:39.748Z,49.70
2023-04-04T14:13:08.448Z,49.70
2023-04-04T14:15:35.704Z,49.30
2023-04-04T14:18:02.729Z,49.90
2023-04-04T14:20:29.717Z,49.60
2023-04-04T14:22:56.859Z,49.50
2023-04-04T14:25:23.718Z,49.40
2023-04-04T14:27:51.474Z,49.50
2023-04-04T14:30:18.414Z,49.60
2023-04-04T14:32:46.426Z,49.70
2023-04-04T14:35:13.422Z,49.60
2023-04-04T14:37:40.872Z,49.20
2023-04-04T14:40:11.834Z,49.30
2023-04-04T14:42:38.897Z,49.60
2023-04-04T14:45:10.373Z,50.00
2023-04-04T14:47:37.363Z,50.20
2023-04-04T14:50:08.303Z,50.50
2023-04-04T14:52:35.376Z,50.50
2023-04-04T14:55:02.368Z,50.80
2023-04-04T14:58:00.563Z,51.20
2023-04-04T15:00:29.520Z,51.20
2023-04-04T15:02:56.693Z,51.60
2023-04-04T15:05:24.885Z,51.80
2023-04-04T15:07:51.739Z,52.20
2023-04-04T15:10:20.767Z,52.90
2023-04-04T15:12:47.564Z,53.50
2023-04-04T15:15:14.498Z,53.90
2023-04-04T15:17:42.017Z,54.30
2023-04-04T15:20:09.654Z,54.70
2023-04-04T15:22:38.671Z,55.00
2023-04-04T15:25:06.437Z,55.50
2023-04-04T15:27:33.334Z,55.80
2023-04-04T15:30:00.316Z,56.10
2023-04-04T15:32:27.468Z,56.50
2023-04-04T15:34:55.765Z,57.00
2023-04-04T15:37:22.856Z,57.30
2023-04-04T15:39:53.634Z,57.50
2023-04-04T15:42:21.406Z,57.80
2023-04-04T15:44:48.312Z,58.10
2023-04-04T15:47:16.819Z,58.50
2023-04-04T15:49:43.780Z,58.60
2023-04-04T15:52:10.993Z,58.90
2023-04-04T15:54:39.310Z,59.20
2023-04-04T15:57:06.511Z,59.30
2023-04-04T15:59:33.733Z,59.30
2023-04-04T16:02:00.646Z,59.40
2023-04-04T16:04:27.591Z,59.40
2023-04-04T16:06:54.610Z,59.60
2023-04-04T16:09:21.585Z,59.70
2023-04-04T16:11:51.032Z,60.10
2023-04-04T16:14:18.162Z,60.40
2023-04-04T16:16:45.010Z,60.50
2023-04-04T16:19:16.948Z,60.60
2023-04-04T16:21:44.384Z,60.80
2023-04-04T16:24:11.801Z,61.20
2023-04-04T16:26:39.664Z,61.40
2023-04-04T16:29:06.588Z,61.60
2023-04-04T16:31:33.711Z,61.70
2023-04-04T16:34:00.643Z,61.70
2023-04-04T16:36:27.526Z,61.70
2023-04-04T16:38:55.154Z,62.30
2023-04-04T16:41:21.986Z,61.60
2023-04-04T16:43:52.573Z,61.90
2023-04-04T16:46:19.675Z,62.10
2023-04-04T16:48:46.601Z,62.10
2023-04-04T16:51:13.850Z,62.20
2023-04-04T16:53:43.403Z,62.20
2023-04-04T16:56:10.488Z,62.20
2023-04-04T16:58:37.353Z,62.50
2023-04-04T17:01:04.177Z,62.40
2023-04-04T17:03:31.070Z,62.30
2023-04-04T17:06:00.313Z,62.30
2023-04-04T17:08:27.833Z,62.30
2023-04-04T17:10:54.634Z,62.60
2023-04-04T17:13:21.463Z,62.50
2023-04-04T17:15:48.433Z,62.50
2023-04-04T17:18:15.411Z,62.60
2023-04-04T17:20:43.850Z,62.60
2023-04-04T17:23:11.018Z,62.80
2023-04-04T17:25:37.964Z,63.10
2023-04-04T17:28:04.974Z,63.30
2023-04-04T17:30:32.153Z,63.50
2023-04-04T17:32:59.075Z,63.60
2023-04-04T17:35:26.417Z,63.70
2023-04-04T17:37:53.197Z,64.00
2023-04-04T17:40:20.070Z,64.00
2023-04-04T17:42:46.893Z,64.00
2023-04-04T17:45:13.649Z,64.30
2023-04-04T17:47:40.615Z,64.90
2023-04-04T17:50:07.921Z,64.50
2023-04-04T17:52:34.782Z,64.70
2023-04-04T17:55:02.278Z,65.00
2023-04-04T17:57:31.764Z,65.20
2023-04-04T17:59:59.128Z,65.40
2023-04-04T18:02:28.514Z,65.80
2023-04-04T18:04:57.085Z,66.20
2023-04-04T18:07:23.954Z,66.60
2023-04-04T18:09:53.983Z,66.90
2023-04-04T18:12:33.593Z,67.20
2023-04-04T18:15:02.454Z,67.60
2023-04-04T18:17:29.663Z,68.00
2023-04-04T18:19:59.615Z,68.40
2023-04-04T18:22:29.660Z,68.80
2023-04-04T18:24:57.476Z,69.20
2023-04-04T18:27:35.762Z,69.50
2023-04-04T18:30:10.428Z,69.80
2023-04-04T18:32:48.147Z,70.20
2023-04-04T18:35:15.635Z,70.50
2023-04-04T18:37:45.569Z,70.90
2023-04-04T18:40:13.274Z,71.20
2023-04-04T18:42:41.270Z,71.50
2023-04-04T18:45:11.613Z,71.80
2023-04-04T18:47:40.362Z,72.20
2023-04-04T18:50:08.575Z,72.40
2023-04-04T18:52:36.621Z,72.70
2023-04-04T18:55:06.793Z,72.90
2023-04-04T18:57:48.535Z,73.20
2023-04-04T19:00:18.283Z,73.50
2023-04-04T19:02:45.920Z,73.80
2023-04-04T19:05:13.280Z,74.00
2023-04-04T19:07:46.894Z,74.80
2023-04-04T19:10:14.053Z,74.50
2023-04-04T19:12:41.165Z,74.80
2023-04-04T19:15:08.345Z,75.10
2023-04-04T19:17:38.923Z,75.30
2023-04-04T19:20:07.425Z,75.50
2023-04-04T19:22:34.288Z,75.80
2023-04-04T19:25:01.230Z,76.10
2023-04-04T19:27:28.277Z,76.30
2023-04-04T19:29:57.895Z,76.50
2023-04-04T19:36:12.895Z,76.80
2023-04-04T19:38:41.880Z,77.30
2023-04-04T19:41:28.397Z,77.50
2023-04-04T19:44:16.329Z,77.90
2023-04-04T19:46:43.588Z,78.00
2023-04-04T19:49:16.679Z,78.20
2023-04-04T19:51:54.765Z,78.40
2023-04-04T19:54:26.395Z,78.60
2023-04-04T19:56:59.822Z,78.90
2023-04-04T19:59:42.223Z,79.00
2023-04-04T20:02:15.826Z,79.20
2023-04-04T20:04:42.850Z,79.50
2023-04-04T20:07:10.738Z,80.20
2023-04-04T20:09:40.277Z,79.80
2023-04-04T20:12:09.765Z,80.00
2023-04-04T20:14:38.228Z,80.20
2023-04-04T20:17:40.939Z,80.40
2023-04-04T20:20:09.461Z,80.50
2023-04-04T20:22:36.757Z,80.90
2023-04-04T20:25:04.684Z,81.10
2023-04-04T20:27:33.432Z,81.20
2023-04-04T20:30:00.881Z,81.50
2023-04-04T20:32:28.057Z,81.70
2023-04-04T20:34:55.269Z,81.90
2023-04-04T20:37:23.859Z,82.00
2023-04-04T20:39:59.028Z,82.20
2023-04-04T20:43:01.672Z,82.30
2023-04-04T20:45:37.813Z,82.50
2023-04-04T20:48:07.383Z,82.70
2023-04-04T20:50:34.578Z,82.70
2023-04-04T20:53:03.381Z,83.00
2023-04-04T20:55:33.230Z,83.00
2023-04-04T20:58:09.361Z,83.10
2023-04-04T21:00:40.658Z,83.20
2023-04-04T21:03:10.531Z,83.50
2023-04-04T21:05:43.800Z,83.60
2023-04-04T21:08:37.572Z,83.80
2023-04-04T21:11:04.603Z,83.90
2023-04-04T21:13:38.739Z,84.00
2023-04-04T21:16:12.800Z,84.10
2023-04-04T21:18:40.836Z,84.20
2023-04-04T21:21:20.507Z,84.20
2023-04-04T21:23:56.961Z,84.30
2023-04-04T21:26:32.811Z,84.30
2023-04-04T21:29:02.061Z,84.30
2023-04-04T21:31:39.750Z,84.40
2023-04-04T21:34:08.907Z,84.40
2023-04-04T21:36:38.614Z,84.50
2023-04-04T21:39:17.196Z,84.60
2023-04-04T21:41:45.110Z,84.60
2023-04-04T21:44:14.210Z,84.70
2023-04-04T21:46:41.837Z,84.80
2023-04-04T21:49:12.199Z,84.80
2023-04-04T21:51:42.481Z,84.80
2023-04-04T21:54:09.643Z,84.80
2023-04-04T21:56:38.543Z,85.10
2023-04-04T21:59:09.396Z,85.30
2023-04-04T22:01:37.166Z,85.20
2023-04-04T22:04:06.877Z,85.30
2023-04-04T22:06:37.404Z,85.40
2023-04-04T22:09:05.429Z,85.40
2023-04-04T22:11:34.940Z,85.60
2023-04-04T22:14:07.553Z,85.60
2023-04-04T22:16:39.751Z,85.70
2023-04-04T22:19:07.875Z,85.80
2023-04-04T22:21:37.147Z,85.90
2023-04-04T22:24:06.129Z,86.00
2023-04-04T22:26:36.504Z,86.10
2023-04-04T22:29:04.645Z,86.20
2023-04-04T22:31:34.702Z,86.20
2023-04-04T22:34:03.470Z,86.40
2023-04-04T22:36:35.366Z,86.50
2023-04-04T22:39:03.029Z,86.70
2023-04-04T22:41:30.238Z,86.70
2023-04-04T22:43:57.779Z,86.90
2023-04-04T22:46:29.402Z,87.10
2023-04-04T22:49:05.693Z,87.30
2023-04-04T22:51:35.405Z,87.50
2023-04-04T22:54:03.252Z,87.60
2023-04-04T22:56:30.845Z,88.10
2023-04-04T22:58:58.479Z,87.80
2023-04-04T23:01:25.550Z,88.00
2023-04-04T23:03:52.949Z,88.70
2023-04-04T23:06:20.254Z,88.20
2023-04-04T23:08:47.459Z,88.40
2023-04-04T23:11:16.905Z,88.60
2023-04-04T23:13:44.198Z,88.60
2023-04-04T23:16:13.845Z,88.80
2023-04-04T23:18:41.050Z,88.90
2023-04-04T23:21:08.111Z,89.00
2023-04-04T23:23:35.046Z,89.10
2023-04-04T23:26:02.683Z,89.40
2023-04-04T23:28:29.869Z,89.30
2023-04-04T23:30:57.091Z,89.40
2023-04-04T23:33:24.374Z,89.70
2023-04-04T23:35:51.704Z,89.60
2023-04-04T23:38:18.880Z,89.80
2023-04-04T23:40:46.056Z,90.20
2023-04-04T23:43:13.069Z,89.90
2023-04-04T23:45:40.589Z,90.00
2023-04-04T23:48:07.796Z,90.10
2023-04-04T23:50:34.863Z,90.10
2023-04-04T23:53:03.926Z,90.20
2023-04-04T23:55:31.172Z,90.20
2023-04-04T23:58:02.660Z,90.30
